Time;durP1;ratioP1;P1;durP2;ratioP2;P2;SDS_P1;SDS_P2;PMS_P1;PMS_P2;Temp;Humidity;BMP_temperature;BMP_pressure;BME280_temperature;BME280_humidity;BME280_pressure;Samples;Min_cycle;Max_cycle;Signal;HPM_P1;HPM_P2
2023/03/02 00:01:42;;;;;;;44.10;25.20;;;;;;;;;;4998358;28;20125;-71
2023/03/02 00:04:12;;;;;;;46.85;25.40;;;;;;;;;;4998006;28;20398;-71
2023/03/02 00:06:38;;;;;;;46.20;25.15;;;;;;;;;;4997704;28;20046;-71
2023/03/02 00:09:05;;;;;;;45.28;24.70;;;;;;;;;;4998115;28;20034;-71
2023/03/02 00:11:32;;;;;;;40.30;22.50;;;;;;;;;;4998038;28;20041;-71
2023/03/02 00:13:58;;;;;;;43.03;22.60;;;;;;;;;;4998198;28;20040;-71
2023/03/02 00:16:24;;;;;;;49.63;23.33;;;;;;;;;;4997791;28;20042;-71
2023/03/02 00:18:50;;;;;;;41.67;21.92;;;;;;;;;;4997514;28;20129;-70
2023/03/02 00:21:16;;;;;;;38.33;20.15;;;;;;;;;;4997322;28;20122;-71
2023/03/02 00:23:43;;;;;;;37.33;20.90;;;;;;;;;;4997802;28;20386;-71
2023/03/02 00:26:09;;;;;;;34.05;19.05;;;;;;;;;;4997621;28;20085;-71
2023/03/02 00:28:35;;;;;;;34.55;19.02;;;;;;;;;;4997479;28;20034;-71
2023/03/02 00:31:05;;;;;;;32.97;18.67;;;;;;;;;;5014894;28;20397;-71
2023/03/02 00:33:34;;;;;;;36.60;18.95;;;;;;;;;;4997512;28;20057;-71
2023/03/02 00:36:00;;;;;;;31.42;17.90;;;;;;;;;;4980952;28;20054;-71
2023/03/02 00:38:27;;;;;;;29.20;17.38;;;;;;;;;;4997664;28;20049;-71
2023/03/02 00:40:54;;;;;;;28.13;15.88;;;;;;;;;;5014815;28;20038;-71
2023/03/02 00:43:26;;;;;;;25.02;15.40;;;;;;;;;;4997384;28;20049;-71
2023/03/02 00:45:52;;;;;;;31.50;15.63;;;;;;;;;;4997218;28;20524;-71
2023/03/02 00:48:18;;;;;;;26.42;15.68;;;;;;;;;;4997106;28;20096;-71
2023/03/02 00:50:44;;;;;;;27.15;15.52;;;;;;;;;;4997118;28;20149;-71
2023/03/02 00:53:10;;;;;;;26.23;15.52;;;;;;;;;;4981014;28;20045;-71
2023/03/02 00:55:37;;;;;;;29.95;15.93;;;;;;;;;;4997331;28;20046;-71
2023/03/02 00:58:04;;;;;;;24.55;14.07;;;;;;;;;;4996898;28;20125;-71
2023/03/02 01:00:31;;;;;;;30.83;14.60;;;;;;;;;;4996892;28;20100;-71
2023/03/02 01:02:57;;;;;;;23.27;14.63;;;;;;;;;;4996958;28;20045;-71
2023/03/02 01:05:23;;;;;;;24.58;13.63;;;;;;;;;;4997064;28;20054;-71
2023/03/02 01:07:49;;;;;;;24.48;13.75;;;;;;;;;;4996265;28;20497;-71
2023/03/02 01:10:15;;;;;;;22.77;13.50;;;;;;;;;;4997199;28;20044;-71
2023/03/02 01:12:41;;;;;;;26.95;13.07;;;;;;;;;;4996507;28;20041;-71
2023/03/02 01:15:08;;;;;;;25.35;13.80;;;;;;;;;;4997049;28;20545;-71
2023/03/02 01:17:34;;;;;;;24.40;14.55;;;;;;;;;;4997157;28;20038;-71
2023/03/02 01:20:00;;;;;;;23.63;13.82;;;;;;;;;;5012972;28;20033;-71
2023/03/02 01:22:27;;;;;;;23.45;14.38;;;;;;;;;;4996971;28;20037;-71
2023/03/02 01:24:53;;;;;;;22.65;12.52;;;;;;;;;;4996532;28;20051;-71
2023/03/02 01:27:19;;;;;;;23.48;13.57;;;;;;;;;;4996773;28;20064;-72
2023/03/02 01:29:45;;;;;;;32.60;14.95;;;;;;;;;;4996532;28;20124;-71
2023/03/02 01:32:11;;;;;;;26.55;14.13;;;;;;;;;;4996278;28;20544;-71
2023/03/02 01:34:38;;;;;;;26.88;13.15;;;;;;;;;;4989786;28;20050;-71
2023/03/02 01:37:04;;;;;;;27.35;12.57;;;;;;;;;;4977410;28;20507;-71
2023/03/02 01:39:30;;;;;;;22.60;12.60;;;;;;;;;;4993077;28;20052;-71
2023/03/02 01:41:56;;;;;;;25.42;12.60;;;;;;;;;;4977348;28;20054;-71
2023/03/02 01:44:41;;;;;;;20.70;11.27;;;;;;;;;;4992691;28;20049;-71
2023/03/02 01:47:15;;;;;;;23.67;11.68;;;;;;;;;;4989873;28;20100;-71
2023/03/02 01:49:55;;;;;;;24.38;11.32;;;;;;;;;;4986168;28;20038;-71
2023/03/02 01:52:22;;;;;;;20.80;10.65;;;;;;;;;;4992718;28;20034;-71
2023/03/02 01:54:49;;;;;;;16.60;10.25;;;;;;;;;;4993928;28;20121;-71
2023/03/02 01:57:20;;;;;;;16.58;10.35;;;;;;;;;;4992922;28;20042;-71
2023/03/02 01:59:47;;;;;;;17.73;10.07;;;;;;;;;;4992638;28;20133;-71
2023/03/02 02:02:13;;;;;;;17.77;10.80;;;;;;;;;;4992777;28;20043;-71
2023/03/02 02:04:40;;;;;;;15.05;9.25;;;;;;;;;;4992440;28;20105;-71
2023/03/02 02:07:07;;;;;;;16.98;10.48;;;;;;;;;;4992777;28;20442;-71
2023/03/02 02:09:36;;;;;;;21.10;10.13;;;;;;;;;;4992253;28;20495;-71
2023/03/02 02:12:02;;;;;;;19.40;10.15;;;;;;;;;;4992066;28;20081;-72
2023/03/02 02:14:28;;;;;;;16.25;9.98;;;;;;;;;;4992807;28;20109;-71
2023/03/02 02:16:54;;;;;;;15.13;9.10;;;;;;;;;;4992768;28;20061;-71
2023/03/02 02:19:33;;;;;;;16.42;9.23;;;;;;;;;;4992230;28;20049;-71
2023/03/02 02:21:59;;;;;;;18.98;10.50;;;;;;;;;;4992228;28;20085;-71
2023/03/02 02:24:29;;;;;;;18.52;10.07;;;;;;;;;;4992697;28;20046;-71
2023/03/02 02:26:55;;;;;;;15.75;9.93;;;;;;;;;;4992349;28;20549;-71
2023/03/02 02:29:25;;;;;;;18.58;10.93;;;;;;;;;;4992739;28;20451;-71
2023/03/02 02:31:54;;;;;;;17.55;9.93;;;;;;;;;;4992521;28;20043;-71
2023/03/02 02:34:21;;;;;;;20.27;10.93;;;;;;;;;;4992388;28;20042;-71
2023/03/02 02:36:49;;;;;;;17.40;11.20;;;;;;;;;;4976111;28;20502;-71
2023/03/02 02:39:18;;;;;;;23.55;12.85;;;;;;;;;;4992380;28;20042;-71
2023/03/02 02:41:45;;;;;;;22.83;13.27;;;;;;;;;;4992087;28;20161;-72
2023/03/02 02:44:16;;;;;;;24.40;13.23;;;;;;;;;;4992176;28;20053;-71
2023/03/02 02:46:43;;;;;;;25.98;13.32;;;;;;;;;;4992499;28;20038;-70
2023/03/02 02:49:30;;;;;;;27.67;14.18;;;;;;;;;;4992202;28;20121;-71
2023/03/02 02:51:56;;;;;;;25.58;13.02;;;;;;;;;;4992048;28;20586;-71
2023/03/02 02:54:22;;;;;;;27.30;15.30;;;;;;;;;;4992435;28;20092;-71
2023/03/02 02:56:49;;;;;;;28.52;14.38;;;;;;;;;;4992583;28;20427;-71
2023/03/02 02:59:18;;;;;;;24.00;14.57;;;;;;;;;;4992403;28;20456;-71
2023/03/02 03:01:45;;;;;;;24.23;14.50;;;;;;;;;;4991603;28;20038;-71
2023/03/02 03:04:13;;;;;;;30.35;15.02;;;;;;;;;;4992397;28;20053;-71
2023/03/02 03:06:48;;;;;;;24.88;14.02;;;;;;;;;;4975918;28;20042;-71
2023/03/02 03:09:14;;;;;;;23.88;13.63;;;;;;;;;;4992103;28;20049;-71
2023/03/02 03:11:41;;;;;;;22.92;14.15;;;;;;;;;;4991898;28;20046;-71
2023/03/02 03:14:09;;;;;;;21.42;13.07;;;;;;;;;;4992125;28;20114;-71
2023/03/02 03:16:36;;;;;;;20.65;13.27;;;;;;;;;;4976111;28;20360;-71
2023/03/02 03:19:07;;;;;;;21.52;13.30;;;;;;;;;;4992374;28;20360;-71
2023/03/02 03:21:34;;;;;;;24.48;13.48;;;;;;;;;;4975948;28;20061;-71
2023/03/02 03:24:00;;;;;;;25.85;14.07;;;;;;;;;;4991854;28;20069;-70
2023/03/02 03:26:26;;;;;;;26.75;14.70;;;;;;;;;;4991855;28;20060;-71
2023/03/02 03:28:52;;;;;;;24.95;13.48;;;;;;;;;;4990432;28;20034;-71
2023/03/02 03:31:18;;;;;;;30.90;15.23;;;;;;;;;;4992967;28;20049;-71
2023/03/02 03:33:44;;;;;;;28.20;15.35;;;;;;;;;;4994043;28;20081;-71
2023/03/02 03:36:10;;;;;;;26.73;14.25;;;;;;;;;;4994571;28;20054;-71
2023/03/02 03:38:36;;;;;;;31.50;16.83;;;;;;;;;;4995234;28;20490;-71
2023/03/02 03:41:02;;;;;;;34.28;18.23;;;;;;;;;;4979111;28;20367;-71
2023/03/02 03:43:28;;;;;;;33.10;16.80;;;;;;;;;;4979117;28;20078;-71
2023/03/02 03:45:55;;;;;;;35.35;17.77;;;;;;;;;;4978640;28;20042;-71
2023/03/02 03:48:21;;;;;;;37.97;19.30;;;;;;;;;;4995410;28;20432;-71
2023/03/02 03:50:47;;;;;;;34.25;18.23;;;;;;;;;;4994815;28;20113;-71
2023/03/02 03:53:13;;;;;;;39.03;18.25;;;;;;;;;;4979010;28;20046;-71
2023/03/02 03:55:39;;;;;;;34.03;17.95;;;;;;;;;;4994792;28;20560;-71
2023/03/02 03:58:05;;;;;;;34.55;18.25;;;;;;;;;;4978837;28;20046;-71
2023/03/02 04:00:31;;;;;;;35.72;19.15;;;;;;;;;;4994927;28;20050;-71
2023/03/02 04:02:57;;;;;;;35.72;18.17;;;;;;;;;;4994966;28;20566;-71
2023/03/02 04:05:23;;;;;;;44.38;18.73;;;;;;;;;;4994903;28;20053;-71
2023/03/02 04:07:49;;;;;;;36.67;19.75;;;;;;;;;;4994761;28;20057;-71
2023/03/02 04:10:15;;;;;;;42.25;20.08;;;;;;;;;;4994542;28;20038;-71
2023/03/02 04:12:42;;;;;;;42.80;19.98;;;;;;;;;;4994503;28;20043;-70
2023/03/02 04:15:10;;;;;;;39.95;18.40;;;;;;;;;;4994825;28;20042;-70
2023/03/02 04:17:36;;;;;;;41.17;20.83;;;;;;;;;;4994484;28;20047;-70
2023/03/02 04:20:04;;;;;;;35.95;19.00;;;;;;;;;;4978194;28;20415;-71
2023/03/02 04:22:30;;;;;;;42.83;20.92;;;;;;;;;;4994619;28;20053;-71
2023/03/02 04:24:56;;;;;;;44.38;20.95;;;;;;;;;;4994446;28;20053;-71
2023/03/02 04:27:22;;;;;;;41.97;19.77;;;;;;;;;;4994529;28;20136;-71
2023/03/02 04:29:51;;;;;;;46.60;21.73;;;;;;;;;;4994432;28;20046;-71
2023/03/02 04:32:18;;;;;;;46.75;21.08;;;;;;;;;;4994672;28;20112;-71
2023/03/02 04:34:44;;;;;;;48.65;22.45;;;;;;;;;;4994261;28;20058;-71
2023/03/02 04:37:10;;;;;;;48.17;22.70;;;;;;;;;;4994230;28;20540;-71
2023/03/02 04:39:36;;;;;;;46.15;21.33;;;;;;;;;;4994247;28;20046;-71
2023/03/02 04:42:02;;;;;;;47.20;22.38;;;;;;;;;;4993155;28;20046;-71
2023/03/02 04:44:28;;;;;;;44.70;21.85;;;;;;;;;;4994191;28;20042;-71
2023/03/02 04:46:54;;;;;;;54.50;22.75;;;;;;;;;;4994016;28;20050;-71
2023/03/02 04:49:21;;;;;;;50.03;23.20;;;;;;;;;;4994192;28;20042;-71
2023/03/02 04:51:47;;;;;;;48.92;23.48;;;;;;;;;;4993915;28;20038;-71
2023/03/02 04:54:15;;;;;;;51.97;22.40;;;;;;;;;;4994139;28;20034;-71
2023/03/02 04:56:41;;;;;;;49.40;23.15;;;;;;;;;;4993790;28;20046;-72
2023/03/02 04:59:07;;;;;;;49.70;21.63;;;;;;;;;;4993890;28;20047;-71
2023/03/02 05:01:33;;;;;;;54.88;25.25;;;;;;;;;;4977687;28;20073;-71
2023/03/02 05:03:59;;;;;;;52.67;23.52;;;;;;;;;;4993791;28;20042;-71
2023/03/02 05:06:25;;;;;;;61.42;27.60;;;;;;;;;;4961403;28;20048;-71
2023/03/02 05:08:52;;;;;;;52.47;24.40;;;;;;;;;;4977286;28;20479;-71
2023/03/02 05:11:22;;;;;;;57.13;25.92;;;;;;;;;;4993296;28;20038;-71
2023/03/02 05:13:49;;;;;;;62.33;24.95;;;;;;;;;;4993522;28;20097;-71
2023/03/02 05:16:15;;;;;;;58.72;25.27;;;;;;;;;;4993227;28;20042;-71
2023/03/02 05:18:41;;;;;;;56.05;25.60;;;;;;;;;;4993353;28;20137;-71
2023/03/02 05:21:07;;;;;;;60.08;26.55;;;;;;;;;;4994472;28;20479;-71
2023/03/02 05:23:33;;;;;;;54.88;24.73;;;;;;;;;;4976785;28;20077;-71
2023/03/02 05:25:59;;;;;;;54.72;25.45;;;;;;;;;;4993352;28;20446;-71
2023/03/02 05:28:25;;;;;;;66.18;28.00;;;;;;;;;;4994401;28;20080;-71
2023/03/02 05:30:52;;;;;;;65.55;28.40;;;;;;;;;;4993265;28;20475;-70
2023/03/02 05:33:18;;;;;;;60.90;28.02;;;;;;;;;;4995603;28;20046;-70
2023/03/02 05:35:44;;;;;;;78.30;30.58;;;;;;;;;;4996517;28;20048;-70
2023/03/02 05:38:11;;;;;;;74.25;29.67;;;;;;;;;;4996649;28;20394;-71
2023/03/02 05:40:37;;;;;;;87.18;31.17;;;;;;;;;;4996686;28;20386;-71
2023/03/02 05:43:03;;;;;;;79.60;31.95;;;;;;;;;;5013559;28;20045;-71
2023/03/02 05:45:34;;;;;;;81.03;31.77;;;;;;;;;;4996315;28;20041;-71
2023/03/02 05:48:00;;;;;;;81.05;31.38;;;;;;;;;;4996040;28;20060;-71
2023/03/02 05:50:27;;;;;;;92.57;33.63;;;;;;;;;;4996338;28;20814;-71
2023/03/02 05:52:53;;;;;;;93.57;32.90;;;;;;;;;;4996144;28;20037;-71
2023/03/02 05:55:19;;;;;;;79.10;30.45;;;;;;;;;;4994586;28;20042;-74
2023/03/02 05:57:48;;;;;;;99.82;35.55;;;;;;;;;;4995390;28;20091;-70
2023/03/02 06:00:14;;;;;;;99.47;34.83;;;;;;;;;;4995938;28;20133;-70
2023/03/02 06:02:40;;;;;;;105.60;35.97;;;;;;;;;;4994573;28;20088;-70
2023/03/02 06:05:07;;;;;;;94.53;33.60;;;;;;;;;;4995189;28;20049;-71
2023/03/02 06:07:34;;;;;;;108.72;36.00;;;;;;;;;;4995885;28;20030;-71
2023/03/02 06:10:00;;;;;;;123.90;39.00;;;;;;;;;;5012354;28;20076;-71
2023/03/02 06:12:26;;;;;;;121.95;36.25;;;;;;;;;;4995986;28;20088;-71
2023/03/02 06:14:52;;;;;;;137.68;40.47;;;;;;;;;;4963575;28;20080;-71
2023/03/02 06:17:18;;;;;;;119.55;36.80;;;;;;;;;;5011628;28;20092;-71
2023/03/02 06:19:44;;;;;;;123.45;36.67;;;;;;;;;;4995479;28;20077;-71
2023/03/02 06:22:10;;;;;;;130.75;38.92;;;;;;;;;;4995631;28;20042;-71
2023/03/02 06:24:36;;;;;;;116.90;36.33;;;;;;;;;;5012322;28;20072;-71
2023/03/02 06:27:02;;;;;;;126.32;37.40;;;;;;;;;;4995174;28;20038;-71
2023/03/02 06:29:28;;;;;;;119.03;35.80;;;;;;;;;;4995868;28;20053;-71
2023/03/02 06:31:54;;;;;;;111.32;36.22;;;;;;;;;;4995643;28;20049;-71
2023/03/02 06:34:20;;;;;;;123.03;36.45;;;;;;;;;;4995595;28;20060;-71
2023/03/02 06:36:46;;;;;;;114.05;34.45;;;;;;;;;;4995711;28;20413;-70
2023/03/02 06:39:15;;;;;;;119.35;34.05;;;;;;;;;;4995503;28;20046;-70
2023/03/02 06:41:45;;;;;;;105.00;35.30;;;;;;;;;;4995687;28;20053;-70
2023/03/02 06:44:12;;;;;;;117.13;35.88;;;;;;;;;;4995784;28;20116;-70
2023/03/02 06:46:39;;;;;;;117.78;35.97;;;;;;;;;;4995102;28;20052;-71
2023/03/02 06:49:05;;;;;;;107.30;32.90;;;;;;;;;;4995351;28;20042;-70
2023/03/02 06:51:31;;;;;;;98.78;32.70;;;;;;;;;;4995268;28;20502;-70
2023/03/02 06:53:57;;;;;;;102.38;33.97;;;;;;;;;;4995511;28;20439;-70
2023/03/02 06:56:23;;;;;;;92.65;31.75;;;;;;;;;;4995015;28;20554;-70
2023/03/02 06:58:49;;;;;;;90.88;32.17;;;;;;;;;;4992429;28;20410;-70
2023/03/02 07:01:16;;;;;;;92.70;31.05;;;;;;;;;;4986866;28;20106;-71
2023/03/02 07:03:42;;;;;;;97.18;30.40;;;;;;;;;;4992551;28;20352;-71
2023/03/02 07:06:09;;;;;;;84.25;30.35;;;;;;;;;;4994024;28;20046;-71
2023/03/02 07:08:35;;;;;;;89.80;31.05;;;;;;;;;;4999020;28;20116;-71
2023/03/02 07:11:04;;;;;;;93.45;30.33;;;;;;;;;;4998926;28;20034;-71
2023/03/02 07:13:30;;;;;;;94.38;30.63;;;;;;;;;;4989112;28;20038;-71
2023/03/02 07:15:56;;;;;;;91.60;31.60;;;;;;;;;;4989662;28;20176;-71
2023/03/02 07:18:22;;;;;;;100.57;31.70;;;;;;;;;;4998626;28;20038;-71
2023/03/02 07:20:48;;;;;;;95.35;32.83;;;;;;;;;;4992820;28;20486;-72
2023/03/02 07:23:14;;;;;;;88.15;31.90;;;;;;;;;;4995821;28;20056;-71
2023/03/02 07:25:42;;;;;;;97.93;33.90;;;;;;;;;;4995463;28;20049;-71
2023/03/02 07:28:08;;;;;;;94.55;32.45;;;;;;;;;;4998242;28;20076;-71
2023/03/02 07:30:34;;;;;;;101.47;33.20;;;;;;;;;;4998165;28;20042;-71
2023/03/02 07:33:00;;;;;;;103.93;33.85;;;;;;;;;;4997332;28;20065;-71
2023/03/02 07:35:26;;;;;;;89.47;31.30;;;;;;;;;;5008287;28;20073;-71
2023/03/02 07:37:52;;;;;;;89.63;32.47;;;;;;;;;;4982505;28;20048;-70
2023/03/02 07:40:18;;;;;;;93.85;32.85;;;;;;;;;;4998410;28;20045;-71
2023/03/02 07:42:44;;;;;;;100.25;32.85;;;;;;;;;;4998900;28;20037;-71
2023/03/02 07:45:11;;;;;;;94.43;31.98;;;;;;;;;;4997842;28;20072;-71
2023/03/02 07:47:37;;;;;;;90.35;31.15;;;;;;;;;;4997360;28;20034;-71
2023/03/02 07:50:03;;;;;;;87.88;32.15;;;;;;;;;;4980656;28;20451;-70
2023/03/02 07:52:30;;;;;;;95.65;32.20;;;;;;;;;;4997144;28;20084;-71
2023/03/02 07:54:56;;;;;;;100.68;33.42;;;;;;;;;;4997201;28;20129;-71
2023/03/02 07:57:22;;;;;;;101.88;32.03;;;;;;;;;;4997010;28;20042;-71
2023/03/02 07:59:48;;;;;;;95.88;32.67;;;;;;;;;;4980973;28;20072;-71
2023/03/02 08:02:15;;;;;;;95.32;31.92;;;;;;;;;;4997060;28;20049;-71
2023/03/02 08:04:41;;;;;;;96.70;31.83;;;;;;;;;;4996898;28;20046;-71
2023/03/02 08:07:07;;;;;;;95.60;30.85;;;;;;;;;;4996991;28;20520;-71
2023/03/02 08:09:33;;;;;;;95.18;30.60;;;;;;;;;;4997229;28;20048;-71
2023/03/02 08:11:59;;;;;;;89.45;30.20;;;;;;;;;;4997131;28;20518;-70
2023/03/02 08:14:25;;;;;;;86.63;31.45;;;;;;;;;;4997004;28;20041;-71
2023/03/02 08:16:51;;;;;;;94.63;31.10;;;;;;;;;;4995693;28;20037;-70
2023/03/02 08:19:18;;;;;;;89.15;29.75;;;;;;;;;;4980659;28;20048;-71
2023/03/02 08:21:44;;;;;;;90.88;30.02;;;;;;;;;;4996888;28;20045;-70
2023/03/02 08:24:11;;;;;;;88.38;28.25;;;;;;;;;;4996859;28;20037;-71
2023/03/02 08:26:37;;;;;;;88.50;28.63;;;;;;;;;;4996240;28;20042;-71
2023/03/02 08:29:04;;;;;;;91.85;30.58;;;;;;;;;;4996439;28;20478;-71
2023/03/02 08:31:30;;;;;;;92.75;31.67;;;;;;;;;;4996859;28;20034;-71
2023/03/02 08:33:58;;;;;;;93.07;30.60;;;;;;;;;;4995936;28;20064;-71
2023/03/02 08:36:24;;;;;;;79.57;27.17;;;;;;;;;;4996475;28;20045;-71
2023/03/02 08:38:51;;;;;;;84.68;28.90;;;;;;;;;;4996326;28;20569;-71
2023/03/02 08:41:18;;;;;;;73.18;26.60;;;;;;;;;;4996537;28;20434;-71
2023/03/02 08:43:45;;;;;;;70.25;26.55;;;;;;;;;;4995955;28;20046;-71
2023/03/02 08:46:11;;;;;;;71.72;25.80;;;;;;;;;;4996260;28;20038;-71
2023/03/02 08:48:38;;;;;;;72.45;27.02;;;;;;;;;;4996106;28;20073;-71
2023/03/02 08:51:06;;;;;;;75.20;26.83;;;;;;;;;;4995658;28;20099;-71
2023/03/02 08:53:33;;;;;;;77.68;26.45;;;;;;;;;;4995703;28;20050;-71
2023/03/02 08:56:00;;;;;;;80.50;27.05;;;;;;;;;;4995882;28;20053;-71
2023/03/02 08:58:26;;;;;;;74.55;26.75;;;;;;;;;;4995926;28;20034;-71
2023/03/02 09:00:52;;;;;;;74.72;26.73;;;;;;;;;;4996364;28;20124;-71
2023/03/02 09:03:19;;;;;;;84.45;27.55;;;;;;;;;;4979418;28;20060;-71
2023/03/02 09:05:45;;;;;;;79.13;27.42;;;;;;;;;;4995548;28;20038;-71
2023/03/02 09:08:11;;;;;;;83.68;28.35;;;;;;;;;;4995756;28;20038;-71
2023/03/02 09:10:38;;;;;;;79.30;27.15;;;;;;;;;;4995656;28;20398;-71
2023/03/02 09:13:04;;;;;;;81.57;28.00;;;;;;;;;;4995499;28;20034;-71
2023/03/02 09:15:30;;;;;;;83.43;27.85;;;;;;;;;;4995860;28;20056;-71
2023/03/02 09:17:56;;;;;;;83.05;27.55;;;;;;;;;;4995231;28;20046;-71
2023/03/02 09:20:22;;;;;;;77.43;26.27;;;;;;;;;;4995190;28;20104;-71
2023/03/02 09:22:49;;;;;;;78.43;26.38;;;;;;;;;;4995658;28;20045;-71
2023/03/02 09:25:18;;;;;;;83.78;26.45;;;;;;;;;;4995416;28;20084;-71
2023/03/02 09:27:48;;;;;;;73.85;26.33;;;;;;;;;;4995320;28;20029;-71
2023/03/02 09:30:14;;;;;;;83.60;27.60;;;;;;;;;;4995223;28;20034;-71
2023/03/02 09:32:40;;;;;;;85.18;28.67;;;;;;;;;;4995127;28;20515;-71
2023/03/02 09:35:07;;;;;;;86.07;28.00;;;;;;;;;;4994674;28;20061;-71
2023/03/02 09:37:36;;;;;;;77.28;27.35;;;;;;;;;;4994764;28;20057;-71
2023/03/02 09:40:02;;;;;;;77.68;25.00;;;;;;;;;;4993052;28;20046;-71
2023/03/02 09:42:46;;;;;;;71.97;25.67;;;;;;;;;;4978797;28;20041;-71
2023/03/02 09:45:18;;;;;;;68.53;25.85;;;;;;;;;;4994298;28;20124;-74
2023/03/02 09:48:04;;;;;;;69.80;25.77;;;;;;;;;;4995303;28;20050;-71
2023/03/02 09:50:32;;;;;;;72.10;24.67;;;;;;;;;;4995113;28;20073;-72
2023/03/02 09:53:34;;;;;;;69.10;25.63;;;;;;;;;;4995996;28;20042;-72
2023/03/02 09:56:01;;;;;;;71.07;24.17;;;;;;;;;;4933317;29;20086;-71
2023/03/02 09:58:38;;;;;;;70.45;24.90;;;;;;;;;;4979576;28;20053;-71
2023/03/02 10:01:09;;;;;;;73.38;25.85;;;;;;;;;;4994353;28;20041;-71
2023/03/02 10:03:39;;;;;;;72.75;24.23;;;;;;;;;;4994476;28;20121;-71
2023/03/02 10:06:05;;;;;;;76.35;25.88;;;;;;;;;;4977715;28;20393;-71
2023/03/02 10:08:34;;;;;;;78.43;27.27;;;;;;;;;;4994342;28;20038;-72
2023/03/02 10:11:14;;;;;;;71.45;25.67;;;;;;;;;;4994694;28;20133;-71
2023/03/02 10:13:45;;;;;;;77.65;25.90;;;;;;;;;;4993781;28;20057;-71
2023/03/02 10:16:11;;;;;;;74.03;26.02;;;;;;;;;;4988841;28;20478;-71
2023/03/02 10:18:40;;;;;;;70.10;25.00;;;;;;;;;;4972787;28;20486;-71
2023/03/02 10:21:10;;;;;;;69.20;24.50;;;;;;;;;;4994049;28;20088;-71
2023/03/02 10:23:51;;;;;;;64.75;23.08;;;;;;;;;;4990485;28;20066;-71
2023/03/02 10:26:26;;;;;;;78.93;24.92;;;;;;;;;;4992388;28;20134;-71
2023/03/02 10:29:00;;;;;;;70.18;26.38;;;;;;;;;;4990682;28;20532;-71
2023/03/02 10:31:48;;;;;;;63.45;23.83;;;5.20;99.90;;;;;;4994194;28;20045;-73
2023/03/02 10:34:15;;;;;;;80.82;25.08;;;;;;;;;;4993667;28;20116;-70
2023/03/02 10:36:43;;;;;;;71.97;24.38;;;;;;;;;;4993414;28;20077;-70
2023/03/02 10:39:13;;;;;;;73.60;25.02;;;;;;;;;;4994281;28;20045;-70
2023/03/02 10:41:44;;;;;;;64.65;23.77;;;;;;;;;;4998107;28;20042;-70
2023/03/02 10:44:16;;;;;;;60.08;21.48;;;;;;;;;;4998465;28;20046;-70
2023/03/02 10:46:43;;;;;;;59.22;21.95;;;;;;;;;;4998225;28;20034;-70
2023/03/02 10:49:27;;;;;;;63.90;21.83;;;;;;;;;;4998414;28;20123;-70
2023/03/02 10:51:57;;;;;;;68.35;22.05;;;;;;;;;;4998397;28;20053;-70
2023/03/02 10:54:24;;;;;;;63.70;22.48;;;;;;;;;;5015412;28;20042;-70
2023/03/02 10:56:52;;;;;;;65.53;23.88;;;;;;;;;;4982549;28;20038;-70
2023/03/02 10:59:27;;;;;;;66.05;22.70;;;;;;;;;;4997999;28;20046;-70
2023/03/02 11:02:01;;;;;;;70.68;24.40;;;;;;;;;;4998000;28;20041;-70
2023/03/02 11:04:27;;;;;;;61.72;23.27;;;;;;;;;;4995021;28;20075;-71
2023/03/02 11:06:54;;;;;;;61.33;21.90;;;;;;;;;;4997851;28;20038;-70
2023/03/02 11:09:20;;;;;;;54.00;21.67;;;;;;;;;;4998237;28;20046;-70
2023/03/02 11:11:53;;;;;;;60.80;20.55;;;;;;;;;;4998011;28;20034;-70
2023/03/02 11:14:21;;;;;;;57.67;20.60;;;;;;;;;;4998021;28;20108;-70
2023/03/02 11:16:47;;;;;;;56.30;20.02;;;;;;;;;;5015181;28;20121;-70
2023/03/02 11:19:25;;;;;;;58.83;18.75;;;;;;;;;;4997588;28;20048;-70
2023/03/02 11:22:04;;;;;;;51.03;19.02;;;;;;;;;;4997552;28;20038;-70
2023/03/02 11:24:36;;;;;;;61.35;19.88;;;;;;;;;;4997496;28;20038;-70
2023/03/02 11:27:05;;;;;;;52.08;18.67;;;;;;;;;;4997508;28;20041;-70
2023/03/02 11:29:41;;;;;;;57.90;19.27;;;;;;;;;;4997302;28;20458;-70
2023/03/02 11:32:07;;;;;;;53.00;19.73;;;;;;;;;;4996372;28;20034;-70
2023/03/02 11:34:45;;;;;;;59.28;20.63;;;;;;;;;;4996999;28;20050;-70
2023/03/02 11:37:14;;;;;;;53.60;18.50;;;;;;;;;;4997445;28;20052;-70
2023/03/02 11:39:46;;;;;;;50.15;18.20;;;;;;;;;;4997270;28;20034;-70
2023/03/02 11:42:39;;;;;;;56.30;18.85;;;;;;;;;;4997170;28;20486;-70
2023/03/02 11:45:14;;;;;;;59.72;18.10;;;;;;;;;;4977116;28;20088;-70
2023/03/02 11:47:45;;;;;;;56.28;19.70;;;;;;;;;;4997295;28;20044;-70
2023/03/02 11:50:12;;;;;;;57.17;20.40;;;;;;;;;;4996723;28;20041;-69
2023/03/02 11:52:40;;;;;;;63.00;21.30;;;;;;;;;;4996482;28;20034;-71
2023/03/02 11:55:13;;;;;;;59.92;19.90;;;;;;;;;;4997006;28;20041;-70
2023/03/02 11:57:47;;;;;;;58.03;19.67;;;;;;;;;;4996663;28;20045;-70
2023/03/02 12:00:52;;;;;;;60.85;21.30;;;;;;;;;;4996939;28;20046;-71
2023/03/02 12:03:36;;;;;;;59.83;19.27;;;;;;;;;;4900137;29;20071;-71
2023/03/02 12:06:18;;;;;;;57.05;18.98;;;;;;;;;;4899845;29;20079;-71
2023/03/02 12:08:46;;;;;;;57.67;19.77;;;;;;;;;;4967462;28;20049;-71
2023/03/02 12:11:18;;;;;;;55.50;19.40;;;;;;;;;;5014297;28;20440;-71
2023/03/02 12:13:45;;;;;;;47.30;17.88;;;;;;;;;;4995967;28;20099;-71
2023/03/02 12:16:20;;;;;;;51.58;19.63;;;;;;;;;;4996522;28;20575;-70
2023/03/02 12:18:50;;;;;;;53.45;18.42;;;;;;;;;;4996631;28;20179;-71
2023/03/02 12:21:18;;;;;;;46.60;17.23;;;;;;;;;;4996757;28;20073;-72
2023/03/02 12:23:50;;;;;;;47.17;17.27;;;;;;;;;;4996701;28;20454;-71
2023/03/02 12:26:19;;;;;;;50.40;18.10;;;;;;;;;;4994709;28;20045;-70
2023/03/02 12:29:12;;;;;;;44.05;17.08;;;;;;;;;;4996621;28;20125;-70
2023/03/02 12:31:48;;;;;;;42.42;15.73;;;;;;;;;;4949738;28;20058;-69
2023/03/02 12:34:24;;;;;;;37.53;15.55;;;;;;;;;;4987939;28;20053;-70
2023/03/02 12:36:51;;;;;;;35.25;14.52;;;;;;;;;;4992053;28;20046;-69
2023/03/02 12:39:25;;;;;;;38.75;15.77;;;;;;;;;;4993512;28;20050;-69
2023/03/02 12:41:54;;;;;;;38.90;14.93;;;;;;;;;;4986338;28;20446;-70
2023/03/02 12:44:26;;;;;;;37.33;16.58;;;;;;;;;;4988465;28;20039;-69
2023/03/02 12:46:53;;;;;;;39.33;16.25;;;;;;;;;;4993483;28;20049;-69
2023/03/02 12:49:34;;;;;;;34.70;15.18;;;;;;;;;;4993203;28;20454;-70
2023/03/02 12:52:01;;;;;;;34.28;14.60;;;;;;;;;;4993737;28;20038;-70
2023/03/02 12:54:28;;;;;;;35.20;14.88;;;;;;;;;;4995290;28;20402;-70
2023/03/02 12:57:13;;;;;;;32.28;15.15;;;;;;;;;;4993648;28;20045;-70
2023/03/02 12:59:39;;;;;;;33.53;14.35;;;;;;;;;;4993545;28;20042;-70
2023/03/02 13:02:12;;;;;;;30.85;14.25;;;;;;;;;;4993360;28;20046;-70
2023/03/02 13:04:38;;;;;;;29.45;13.68;;;;;;;;;;5009879;28;20057;-70
2023/03/02 13:07:04;;;;;;;27.77;12.90;;;;;;;;;;4993633;28;20096;-70
2023/03/02 13:09:30;;;;;;;28.25;12.73;;;;;;;;;;4993665;28;20042;-70
2023/03/02 13:11:57;;;;;;;23.42;12.85;;;;;;;;;;4993225;28;20121;-70
2023/03/02 13:14:27;;;;;;;24.80;12.77;;;;;;;;;;4993959;28;20378;-70
2023/03/02 13:17:04;;;;;;;22.80;11.60;;;;;;;;;;4993362;28;20053;-70
2023/03/02 13:19:31;;;;;;;21.02;11.93;;;;;;;;;;4993488;28;20054;-70
2023/03/02 13:21:57;;;;;;;23.23;11.10;;;;;;;;;;4977000;28;20042;-69
2023/03/02 13:25:02;;;;;;;25.30;11.65;;;8.00;99.90;;;;;;4993501;28;20046;-70
2023/03/02 13:27:28;;;;;;;21.45;10.82;;;;;;;;;;4993312;28;20079;-70
2023/03/02 13:29:55;;;;;;;21.27;10.85;;;;;;;;;;4991493;28;20463;-70
2023/03/02 13:32:41;;;;;;;19.80;10.45;;;;;;;;;;4993327;28;20376;-70
2023/03/02 13:35:21;;;;;;;21.13;11.18;;;;;;;;;;4993000;28;20058;-70
2023/03/02 13:37:54;;;;;;;22.23;10.30;;;;;;;;;;4993140;28;20509;-69
2023/03/02 13:40:30;;;;;;;20.75;10.15;;;;;;;;;;4978211;28;20046;-70
2023/03/02 13:42:56;;;;;;;19.38;9.88;;;;;;;;;;4993027;28;20046;-70
2023/03/02 13:45:22;;;;;;;17.92;10.25;;;;;;;;;;4992991;28;20046;-70
2023/03/02 13:47:48;;;;;;;15.32;9.45;;;;;;;;;;4992852;28;20387;-70
2023/03/02 13:50:24;;;;;;;18.50;10.02;;;;;;;;;;4992636;28;20041;-70
2023/03/02 13:52:51;;;;;;;21.50;10.32;;;;;;;;;;4992833;28;20040;-70
2023/03/02 13:55:19;;;;;;;18.50;10.05;;;;;;;;;;4993099;28;20144;-70
2023/03/02 13:57:45;;;;;;;21.77;10.05;;;;;;;;;;4992649;28;20046;-70
2023/03/02 14:00:21;;;;;;;19.02;10.38;;;;;;;;;;4993853;28;20166;-70
2023/03/02 14:02:49;;;;;;;21.63;9.70;;;;;;;;;;5015346;28;20034;-70
2023/03/02 14:05:19;;;;;;;22.25;10.77;;;;;;;;;;4976606;28;20514;-70
2023/03/02 14:07:45;;;;;;;23.38;10.60;;;;;;;;;;4992671;28;20129;-70
2023/03/02 14:10:13;;;;;;;16.25;9.25;;;;;;;;;;4992448;28;20050;-70
2023/03/02 14:12:40;;;;;;;17.55;9.80;;;;;;;;;;4992566;28;20042;-70
2023/03/02 14:15:06;;;;;;;17.23;9.68;;;;;;;;;;4992838;28;20065;-70
2023/03/02 14:17:33;;;;;;;18.77;9.52;;;;;;;;;;4992717;28;20050;-70
2023/03/02 14:19:59;;;;;;;21.02;10.23;;;;;;;;;;4992884;28;20050;-70
2023/03/02 14:22:28;;;;;;;19.02;9.63;;;;;;;;;;4992103;28;20069;-70
2023/03/02 14:24:54;;;;;;;20.70;10.65;;;;;;;;;;4992455;28;20053;-70